sensor_id;sensor_type;location;lat;lon;timestamp;temperature;humidity
2783;DHT22;1399;47.072;15.452;2023-02-25T00:00:16;10.80;49.50
2783;DHT22;1399;47.072;15.452;2023-02-25T00:02:45;10.80;49.50
2783;DHT22;1399;47.072;15.452;2023-02-25T00:05:12;10.80;49.50
2783;DHT22;1399;47.072;15.452;2023-02-25T00:07:38;10.80;49.50
2783;DHT22;1399;47.072;15.452;2023-02-25T00:10:06;10.80;49.50
2783;DHT22;1399;47.072;15.452;2023-02-25T00:12:33;10.80;49.40
2783;DHT22;1399;47.072;15.452;2023-02-25T00:14:59;10.70;49.40
2783;DHT22;1399;47.072;15.452;2023-02-25T00:17:25;10.70;49.40
2783;DHT22;1399;47.072;15.452;2023-02-25T00:19:51;10.70;49.40
2783;DHT22;1399;47.072;15.452;2023-02-25T00:22:19;10.70;49.40
2783;DHT22;1399;47.072;15.452;2023-02-25T00:24:45;10.70;49.40
2783;DHT22;1399;47.072;15.452;2023-02-25T00:27:10;10.70;49.40
2783;DHT22;1399;47.072;15.452;2023-02-25T00:29:37;10.70;49.30
2783;DHT22;1399;47.072;15.452;2023-02-25T00:32:03;10.70;49.40
2783;DHT22;1399;47.072;15.452;2023-02-25T00:34:29;10.60;49.30
2783;DHT22;1399;47.072;15.452;2023-02-25T00:36:55;10.60;49.30
2783;DHT22;1399;47.072;15.452;2023-02-25T00:39:21;10.70;49.40
2783;DHT22;1399;47.072;15.452;2023-02-25T00:41:48;10.60;49.90
2783;DHT22;1399;47.072;15.452;2023-02-25T00:44:15;10.60;49.30
2783;DHT22;1399;47.072;15.452;2023-02-25T00:46:41;10.60;49.30
2783;DHT22;1399;47.072;15.452;2023-02-25T00:49:07;10.50;49.30
2783;DHT22;1399;47.072;15.452;2023-02-25T00:51:33;10.50;49.30
2783;DHT22;1399;47.072;15.452;2023-02-25T00:53:59;10.60;49.40
2783;DHT22;1399;47.072;15.452;2023-02-25T00:56:26;10.50;49.30
2783;DHT22;1399;47.072;15.452;2023-02-25T00:58:53;10.50;49.30
2783;DHT22;1399;47.072;15.452;2023-02-25T01:03:49;10.50;49.30
2783;DHT22;1399;47.072;15.452;2023-02-25T01:06:17;10.40;49.30
2783;DHT22;1399;47.072;15.452;2023-02-25T01:08:43;10.40;49.30
2783;DHT22;1399;47.072;15.452;2023-02-25T01:11:18;10.40;49.30
2783;DHT22;1399;47.072;15.452;2023-02-25T01:13:47;10.40;49.30
2783;DHT22;1399;47.072;15.452;2023-02-25T01:16:24;10.40;49.40
2783;DHT22;1399;47.072;15.452;2023-02-25T01:18:55;10.40;49.30
2783;DHT22;1399;47.072;15.452;2023-02-25T01:21:27;10.40;49.40
2783;DHT22;1399;47.072;15.452;2023-02-25T01:23:56;10.40;49.40
2783;DHT22;1399;47.072;15.452;2023-02-25T01:26:28;10.30;49.30
2783;DHT22;1399;47.072;15.452;2023-02-25T01:28:54;10.30;49.30
2783;DHT22;1399;47.072;15.452;2023-02-25T01:31:22;10.30;49.30
2783;DHT22;1399;47.072;15.452;2023-02-25T01:33:52;10.30;49.40
2783;DHT22;1399;47.072;15.452;2023-02-25T01:36:18;10.30;49.30
2783;DHT22;1399;47.072;15.452;2023-02-25T01:38:44;10.30;49.40
2783;DHT22;1399;47.072;15.452;2023-02-25T01:41:10;10.30;49.40
2783;DHT22;1399;47.072;15.452;2023-02-25T01:43:35;10.20;49.30
2783;DHT22;1399;47.072;15.452;2023-02-25T01:46:01;10.30;49.50
2783;DHT22;1399;47.072;15.452;2023-02-25T01:48:30;10.20;49.40
2783;DHT22;1399;47.072;15.452;2023-02-25T01:51:04;10.30;49.50
2783;DHT22;1399;47.072;15.452;2023-02-25T01:53:43;10.20;49.50
2783;DHT22;1399;47.072;15.452;2023-02-25T01:56:12;10.20;49.60
2783;DHT22;1399;47.072;15.452;2023-02-25T01:58:39;10.20;49.60
2783;DHT22;1399;47.072;15.452;2023-02-25T02:01:11;10.20;49.60
2783;DHT22;1399;47.072;15.452;2023-02-25T02:03:39;10.20;49.70
2783;DHT22;1399;47.072;15.452;2023-02-25T02:06:26;10.20;49.70
2783;DHT22;1399;47.072;15.452;2023-02-25T02:08:53;10.20;49.80
2783;DHT22;1399;47.072;15.452;2023-02-25T02:11:19;10.20;49.80
2783;DHT22;1399;47.072;15.452;2023-02-25T02:13:55;10.20;49.80
2783;DHT22;1399;47.072;15.452;2023-02-25T02:19:21;10.10;49.70
2783;DHT22;1399;47.072;15.452;2023-02-25T02:30:13;10.20;49.90
2783;DHT22;1399;47.072;15.452;2023-02-25T02:39:14;10.20;50.00
2783;DHT22;1399;47.072;15.452;2023-02-25T02:47:34;10.20;50.00
2783;DHT22;1399;47.072;15.452;2023-02-25T02:50:07;10.20;50.00
2783;DHT22;1399;47.072;15.452;2023-02-25T02:52:41;10.20;50.00
2783;DHT22;1399;47.072;15.452;2023-02-25T02:55:23;10.20;49.90
2783;DHT22;1399;47.072;15.452;2023-02-25T02:58:17;10.20;49.90
2783;DHT22;1399;47.072;15.452;2023-02-25T03:00:44;10.30;49.90
2783;DHT22;1399;47.072;15.452;2023-02-25T03:03:25;10.30;49.90
2783;DHT22;1399;47.072;15.452;2023-02-25T03:06:02;10.30;49.90
2783;DHT22;1399;47.072;15.452;2023-02-25T03:08:31;10.30;49.80
2783;DHT22;1399;47.072;15.452;2023-02-25T03:10:59;10.30;49.80
2783;DHT22;1399;47.072;15.452;2023-02-25T03:13:25;10.30;49.70
2783;DHT22;1399;47.072;15.452;2023-02-25T03:15:51;10.30;49.70
2783;DHT22;1399;47.072;15.452;2023-02-25T03:18:26;10.40;49.80
2783;DHT22;1399;47.072;15.452;2023-02-25T03:20:55;10.40;49.80
2783;DHT22;1399;47.072;15.452;2023-02-25T03:23:27;10.40;49.70
2783;DHT22;1399;47.072;15.452;2023-02-25T03:26:19;10.40;49.70
2783;DHT22;1399;47.072;15.452;2023-02-25T03:28:46;10.40;49.70
2783;DHT22;1399;47.072;15.452;2023-02-25T03:33:56;10.40;49.60
2783;DHT22;1399;47.072;15.452;2023-02-25T03:38:57;10.50;49.60
2783;DHT22;1399;47.072;15.452;2023-02-25T03:41:29;10.50;49.50
2783;DHT22;1399;47.072;15.452;2023-02-25T03:44:01;10.50;49.50
2783;DHT22;1399;47.072;15.452;2023-02-25T03:46:30;10.50;49.50
2783;DHT22;1399;47.072;15.452;2023-02-25T03:48:59;10.50;49.40
2783;DHT22;1399;47.072;15.452;2023-02-25T03:51:31;10.50;49.40
2783;DHT22;1399;47.072;15.452;2023-02-25T03:53:58;10.50;49.30
2783;DHT22;1399;47.072;15.452;2023-02-25T03:56:24;10.50;49.20
2783;DHT22;1399;47.072;15.452;2023-02-25T03:58:51;10.50;49.20
2783;DHT22;1399;47.072;15.452;2023-02-25T04:01:22;10.60;49.30
2783;DHT22;1399;47.072;15.452;2023-02-25T04:03:49;10.60;49.20
2783;DHT22;1399;47.072;15.452;2023-02-25T04:06:19;10.60;49.20
2783;DHT22;1399;47.072;15.452;2023-02-25T04:08:45;10.60;49.20
2783;DHT22;1399;47.072;15.452;2023-02-25T04:11:11;10.60;49.10
2783;DHT22;1399;47.072;15.452;2023-02-25T04:13:37;10.60;49.10
2783;DHT22;1399;47.072;15.452;2023-02-25T04:16:03;10.60;49.10
2783;DHT22;1399;47.072;15.452;2023-02-25T04:18:28;10.60;49.00
2783;DHT22;1399;47.072;15.452;2023-02-25T04:20:54;10.70;49.00
2783;DHT22;1399;47.072;15.452;2023-02-25T04:23:20;10.70;49.00
2783;DHT22;1399;47.072;15.452;2023-02-25T04:25:46;10.70;49.00
2783;DHT22;1399;47.072;15.452;2023-02-25T04:28:12;10.70;48.90
2783;DHT22;1399;47.072;15.452;2023-02-25T04:30:38;10.70;48.80
2783;DHT22;1399;47.072;15.452;2023-02-25T04:33:04;10.70;48.70
2783;DHT22;1399;47.072;15.452;2023-02-25T04:35:30;10.70;48.70
2783;DHT22;1399;47.072;15.452;2023-02-25T04:37:56;10.80;48.60
2783;DHT22;1399;47.072;15.452;2023-02-25T04:40:23;10.80;48.50
2783;DHT22;1399;47.072;15.452;2023-02-25T04:42:49;10.80;48.40
2783;DHT22;1399;47.072;15.452;2023-02-25T04:45:15;10.80;48.20
2783;DHT22;1399;47.072;15.452;2023-02-25T04:47:42;10.80;48.00
2783;DHT22;1399;47.072;15.452;2023-02-25T04:50:09;10.80;47.90
2783;DHT22;1399;47.072;15.452;2023-02-25T04:52:35;10.80;47.70
2783;DHT22;1399;47.072;15.452;2023-02-25T04:55:02;10.80;47.50
2783;DHT22;1399;47.072;15.452;2023-02-25T04:57:28;10.90;47.50
2783;DHT22;1399;47.072;15.452;2023-02-25T04:59:54;10.90;47.50
2783;DHT22;1399;47.072;15.452;2023-02-25T05:02:20;10.90;47.40
2783;DHT22;1399;47.072;15.452;2023-02-25T05:04:45;10.90;47.40
2783;DHT22;1399;47.072;15.452;2023-02-25T05:07:13;10.90;47.20
2783;DHT22;1399;47.072;15.452;2023-02-25T05:09:39;10.90;46.90
2783;DHT22;1399;47.072;15.452;2023-02-25T05:12:05;10.90;46.80
2783;DHT22;1399;47.072;15.452;2023-02-25T05:14:31;10.90;46.70
2783;DHT22;1399;47.072;15.452;2023-02-25T05:16:57;10.90;46.50
2783;DHT22;1399;47.072;15.452;2023-02-25T05:19:24;10.90;46.30
2783;DHT22;1399;47.072;15.452;2023-02-25T05:21:51;10.90;46.20
2783;DHT22;1399;47.072;15.452;2023-02-25T05:24:17;10.90;46.20
2783;DHT22;1399;47.072;15.452;2023-02-25T05:26:43;10.90;46.00
2783;DHT22;1399;47.072;15.452;2023-02-25T05:29:09;10.90;46.00
2783;DHT22;1399;47.072;15.452;2023-02-25T05:31:35;10.90;46.00
2783;DHT22;1399;47.072;15.452;2023-02-25T05:34:01;10.90;46.10
2783;DHT22;1399;47.072;15.452;2023-02-25T05:36:27;10.90;46.30
2783;DHT22;1399;47.072;15.452;2023-02-25T05:38:54;10.90;46.40
2783;DHT22;1399;47.072;15.452;2023-02-25T05:41:21;10.90;46.70
2783;DHT22;1399;47.072;15.452;2023-02-25T05:43:46;10.90;47.00
2783;DHT22;1399;47.072;15.452;2023-02-25T05:46:13;10.90;47.30
2783;DHT22;1399;47.072;15.452;2023-02-25T05:48:41;10.80;47.40
2783;DHT22;1399;47.072;15.452;2023-02-25T05:51:11;10.80;47.70
2783;DHT22;1399;47.072;15.452;2023-02-25T05:53:37;10.80;48.00
2783;DHT22;1399;47.072;15.452;2023-02-25T05:56:05;10.80;48.20
2783;DHT22;1399;47.072;15.452;2023-02-25T05:58:32;10.80;48.40
2783;DHT22;1399;47.072;15.452;2023-02-25T06:00:58;10.80;48.50
2783;DHT22;1399;47.072;15.452;2023-02-25T06:03:24;10.80;48.60
2783;DHT22;1399;47.072;15.452;2023-02-25T06:05:50;10.80;48.70
2783;DHT22;1399;47.072;15.452;2023-02-25T06:08:17;10.80;48.70
2783;DHT22;1399;47.072;15.452;2023-02-25T06:10:43;10.80;48.60
2783;DHT22;1399;47.072;15.452;2023-02-25T06:13:11;10.80;48.60
2783;DHT22;1399;47.072;15.452;2023-02-25T06:15:38;10.90;48.60
2783;DHT22;1399;47.072;15.452;2023-02-25T06:18:04;10.90;48.50
2783;DHT22;1399;47.072;15.452;2023-02-25T06:20:30;10.90;48.50
2783;DHT22;1399;47.072;15.452;2023-02-25T06:22:56;10.90;48.60
2783;DHT22;1399;47.072;15.452;2023-02-25T06:25:21;10.90;48.70
2783;DHT22;1399;47.072;15.452;2023-02-25T06:27:47;11.00;48.60
2783;DHT22;1399;47.072;15.452;2023-02-25T06:30:13;11.00;48.50
2783;DHT22;1399;47.072;15.452;2023-02-25T06:32:39;11.00;48.30
2783;DHT22;1399;47.072;15.452;2023-02-25T06:35:05;11.00;48.00
2783;DHT22;1399;47.072;15.452;2023-02-25T06:37:32;11.00;48.00
2783;DHT22;1399;47.072;15.452;2023-02-25T06:39:58;11.00;48.00
2783;DHT22;1399;47.072;15.452;2023-02-25T06:42:23;11.00;47.80
2783;DHT22;1399;47.072;15.452;2023-02-25T06:44:49;11.00;47.60
2783;DHT22;1399;47.072;15.452;2023-02-25T06:47:15;11.10;47.50
2783;DHT22;1399;47.072;15.452;2023-02-25T06:49:41;11.10;47.50
2783;DHT22;1399;47.072;15.452;2023-02-25T06:52:06;11.10;47.40
2783;DHT22;1399;47.072;15.452;2023-02-25T06:54:32;11.10;47.40
2783;DHT22;1399;47.072;15.452;2023-02-25T06:56:58;11.10;47.30
2783;DHT22;1399;47.072;15.452;2023-02-25T06:59:25;11.10;47.30
2783;DHT22;1399;47.072;15.452;2023-02-25T07:01:51;11.20;47.30
2783;DHT22;1399;47.072;15.452;2023-02-25T07:04:18;11.20;47.20
2783;DHT22;1399;47.072;15.452;2023-02-25T07:06:44;11.20;47.10
2783;DHT22;1399;47.072;15.452;2023-02-25T07:09:10;11.20;47.00
2783;DHT22;1399;47.072;15.452;2023-02-25T07:11:36;11.20;47.00
2783;DHT22;1399;47.072;15.452;2023-02-25T07:14:03;11.20;46.90
2783;DHT22;1399;47.072;15.452;2023-02-25T07:16:29;11.30;46.90
2783;DHT22;1399;47.072;15.452;2023-02-25T07:18:56;11.30;46.80
2783;DHT22;1399;47.072;15.452;2023-02-25T07:21:22;11.30;46.70
2783;DHT22;1399;47.072;15.452;2023-02-25T07:23:48;11.30;46.70
2783;DHT22;1399;47.072;15.452;2023-02-25T07:26:15;11.30;46.50
2783;DHT22;1399;47.072;15.452;2023-02-25T07:28:42;11.30;46.60
2783;DHT22;1399;47.072;15.452;2023-02-25T07:31:13;11.30;46.50
2783;DHT22;1399;47.072;15.452;2023-02-25T07:33:39;11.40;46.50
2783;DHT22;1399;47.072;15.452;2023-02-25T07:36:07;11.40;46.30
2783;DHT22;1399;47.072;15.452;2023-02-25T07:38:33;11.40;46.30
2783;DHT22;1399;47.072;15.452;2023-02-25T07:41:10;11.50;46.10
2783;DHT22;1399;47.072;15.452;2023-02-25T07:43:36;11.60;46.00
2783;DHT22;1399;47.072;15.452;2023-02-25T07:46:02;11.60;45.90
2783;DHT22;1399;47.072;15.452;2023-02-25T07:48:29;11.70;45.80
2783;DHT22;1399;47.072;15.452;2023-02-25T07:50:55;11.80;45.60
2783;DHT22;1399;47.072;15.452;2023-02-25T07:53:22;11.80;45.40
2783;DHT22;1399;47.072;15.452;2023-02-25T07:55:49;11.90;45.20
2783;DHT22;1399;47.072;15.452;2023-02-25T07:58:15;11.90;45.00
2783;DHT22;1399;47.072;15.452;2023-02-25T08:00:41;11.90;44.70
2783;DHT22;1399;47.072;15.452;2023-02-25T08:03:07;11.90;45.30
2783;DHT22;1399;47.072;15.452;2023-02-25T08:05:34;12.00;44.90
2783;DHT22;1399;47.072;15.452;2023-02-25T08:08:01;12.00;45.10
2783;DHT22;1399;47.072;15.452;2023-02-25T08:10:27;12.00;45.20
2783;DHT22;1399;47.072;15.452;2023-02-25T08:12:52;12.00;45.30
2783;DHT22;1399;47.072;15.452;2023-02-25T08:15:18;12.00;45.40
2783;DHT22;1399;47.072;15.452;2023-02-25T08:17:44;12.10;45.40
2783;DHT22;1399;47.072;15.452;2023-02-25T08:20:10;12.10;45.30
2783;DHT22;1399;47.072;15.452;2023-02-25T08:22:36;12.20;45.40
2783;DHT22;1399;47.072;15.452;2023-02-25T08:25:03;12.30;45.40
2783;DHT22;1399;47.072;15.452;2023-02-25T08:27:29;12.30;45.40
2783;DHT22;1399;47.072;15.452;2023-02-25T08:29:56;12.40;45.40
2783;DHT22;1399;47.072;15.452;2023-02-25T08:32:22;12.40;45.40
2783;DHT22;1399;47.072;15.452;2023-02-25T08:34:51;12.40;45.40
2783;DHT22;1399;47.072;15.452;2023-02-25T08:37:17;12.50;45.40
2783;DHT22;1399;47.072;15.452;2023-02-25T08:39:43;12.60;45.50
2783;DHT22;1399;47.072;15.452;2023-02-25T08:42:09;12.60;45.50
2783;DHT22;1399;47.072;15.452;2023-02-25T08:44:40;12.70;45.60
2783;DHT22;1399;47.072;15.452;2023-02-25T08:47:06;12.70;45.60
2783;DHT22;1399;47.072;15.452;2023-02-25T08:49:32;12.70;45.50
2783;DHT22;1399;47.072;15.452;2023-02-25T08:51:57;12.70;45.60
2783;DHT22;1399;47.072;15.452;2023-02-25T08:54:23;12.70;45.70
2783;DHT22;1399;47.072;15.452;2023-02-25T08:56:50;12.70;45.80
2783;DHT22;1399;47.072;15.452;2023-02-25T08:59:16;12.80;46.00
2783;DHT22;1399;47.072;15.452;2023-02-25T09:01:42;12.80;46.00
2783;DHT22;1399;47.072;15.452;2023-02-25T09:04:16;12.80;46.10
2783;DHT22;1399;47.072;15.452;2023-02-25T09:06:43;12.80;46.20
2783;DHT22;1399;47.072;15.452;2023-02-25T09:09:12;12.80;46.30
2783;DHT22;1399;47.072;15.452;2023-02-25T09:11:40;12.80;46.20
2783;DHT22;1399;47.072;15.452;2023-02-25T09:14:06;12.80;46.20
2783;DHT22;1399;47.072;15.452;2023-02-25T09:16:32;12.80;46.20
2783;DHT22;1399;47.072;15.452;2023-02-25T09:18:58;12.90;46.20
2783;DHT22;1399;47.072;15.452;2023-02-25T09:21:25;12.90;46.20
2783;DHT22;1399;47.072;15.452;2023-02-25T09:23:51;13.00;46.20
2783;DHT22;1399;47.072;15.452;2023-02-25T09:26:18;13.00;46.10
2783;DHT22;1399;47.072;15.452;2023-02-25T09:28:44;13.00;45.90
2783;DHT22;1399;47.072;15.452;2023-02-25T09:31:10;13.00;45.90
2783;DHT22;1399;47.072;15.452;2023-02-25T09:33:37;13.00;45.80
2783;DHT22;1399;47.072;15.452;2023-02-25T09:36:14;13.00;45.70
2783;DHT22;1399;47.072;15.452;2023-02-25T09:38:42;13.00;45.70
2783;DHT22;1399;47.072;15.452;2023-02-25T09:44:20;13.00;45.50
2783;DHT22;1399;47.072;15.452;2023-02-25T09:47:04;13.00;45.30
2783;DHT22;1399;47.072;15.452;2023-02-25T09:49:37;13.00;45.10
2783;DHT22;1399;47.072;15.452;2023-02-25T09:52:30;13.00;44.60
2783;DHT22;1399;47.072;15.452;2023-02-25T10:06:45;13.00;42.60
2783;DHT22;1399;47.072;15.452;2023-02-25T10:09:20;13.10;42.30
2783;DHT22;1399;47.072;15.452;2023-02-25T10:11:52;13.10;42.00
2783;DHT22;1399;47.072;15.452;2023-02-25T10:14:40;13.10;41.70
2783;DHT22;1399;47.072;15.452;2023-02-25T10:20:40;13.20;42.30
2783;DHT22;1399;47.072;15.452;2023-02-25T10:26:21;13.20;42.30
2783;DHT22;1399;47.072;15.452;2023-02-25T10:28:57;13.20;42.10
2783;DHT22;1399;47.072;15.452;2023-02-25T10:31:25;13.20;41.60
2783;DHT22;1399;47.072;15.452;2023-02-25T10:33:52;13.20;41.50
2783;DHT22;1399;47.072;15.452;2023-02-25T10:36:29;13.30;41.40
2783;DHT22;1399;47.072;15.452;2023-02-25T10:38:55;13.40;41.40
2783;DHT22;1399;47.072;15.452;2023-02-25T10:41:22;13.40;40.70
2783;DHT22;1399;47.072;15.452;2023-02-25T10:43:51;13.50;39.40
2783;DHT22;1399;47.072;15.452;2023-02-25T10:46:25;13.50;38.40
2783;DHT22;1399;47.072;15.452;2023-02-25T10:49:00;13.40;38.70
2783;DHT22;1399;47.072;15.452;2023-02-25T10:51:27;13.40;39.30
2783;DHT22;1399;47.072;15.452;2023-02-25T10:56:27;13.40;40.20
2783;DHT22;1399;47.072;15.452;2023-02-25T10:59:05;13.30;40.20
2783;DHT22;1399;47.072;15.452;2023-02-25T11:01:40;13.40;40.30
2783;DHT22;1399;47.072;15.452;2023-02-25T11:04:12;13.50;39.60
2783;DHT22;1399;47.072;15.452;2023-02-25T11:06:40;13.60;39.40
2783;DHT22;1399;47.072;15.452;2023-02-25T11:12:08;13.90;37.80
2783;DHT22;1399;47.072;15.452;2023-02-25T11:14:36;14.00;37.20
2783;DHT22;1399;47.072;15.452;2023-02-25T11:17:03;14.00;36.90
2783;DHT22;1399;47.072;15.452;2023-02-25T11:19:31;14.00;36.50
2783;DHT22;1399;47.072;15.452;2023-02-25T11:22:07;14.00;35.90
2783;DHT22;1399;47.072;15.452;2023-02-25T11:24:36;14.00;36.20
2783;DHT22;1399;47.072;15.452;2023-02-25T11:27:05;13.90;35.90
2783;DHT22;1399;47.072;15.452;2023-02-25T11:29:35;13.90;35.80
2783;DHT22;1399;47.072;15.452;2023-02-25T11:32:17;13.80;35.70
2783;DHT22;1399;47.072;15.452;2023-02-25T11:34:48;13.80;34.90
2783;DHT22;1399;47.072;15.452;2023-02-25T11:40:28;13.70;33.50
2783;DHT22;1399;47.072;15.452;2023-02-25T11:43:24;13.70;33.20
2783;DHT22;1399;47.072;15.452;2023-02-25T11:45:52;13.60;32.40
2783;DHT22;1399;47.072;15.452;2023-02-25T11:57:08;13.60;30.00
2783;DHT22;1399;47.072;15.452;2023-02-25T12:13:09;13.40;29.30
2783;DHT22;1399;47.072;15.452;2023-02-25T12:38:19;13.30;29.40
2783;DHT22;1399;47.072;15.452;2023-02-25T12:47:16;13.30;28.90
2783;DHT22;1399;47.072;15.452;2023-02-25T12:52:58;13.20;28.80
2783;DHT22;1399;47.072;15.452;2023-02-25T12:58:22;13.20;29.00
2783;DHT22;1399;47.072;15.452;2023-02-25T13:06:32;13.20;29.00
2783;DHT22;1399;47.072;15.452;2023-02-25T13:23:44;13.20;28.80
2783;DHT22;1399;47.072;15.452;2023-02-25T13:37:16;13.30;29.00
2783;DHT22;1399;47.072;15.452;2023-02-25T13:48:41;13.40;29.20
2783;DHT22;1399;47.072;15.452;2023-02-25T13:54:01;13.40;29.00
2783;DHT22;1399;47.072;15.452;2023-02-25T14:07:59;13.40;28.90
2783;DHT22;1399;47.072;15.452;2023-02-25T14:10:51;13.50;28.90
2783;DHT22;1399;47.072;15.452;2023-02-25T14:24:35;13.50;28.60
2783;DHT22;1399;47.072;15.452;2023-02-25T14:30:21;13.40;28.20
2783;DHT22;1399;47.072;15.452;2023-02-25T14:33:12;13.40;28.00
2783;DHT22;1399;47.072;15.452;2023-02-25T14:44:16;13.30;28.30
2783;DHT22;1399;47.072;15.452;2023-02-25T14:46:53;13.20;27.70
2783;DHT22;1399;47.072;15.452;2023-02-25T14:49:57;13.20;27.70
2783;DHT22;1399;47.072;15.452;2023-02-25T15:12:45;12.80;27.70
2783;DHT22;1399;47.072;15.452;2023-02-25T15:20:36;12.70;27.90
2783;DHT22;1399;47.072;15.452;2023-02-25T15:23:08;12.70;28.00
2783;DHT22;1399;47.072;15.452;2023-02-25T15:25:42;12.60;28.00
2783;DHT22;1399;47.072;15.452;2023-02-25T15:33:42;12.50;28.20
2783;DHT22;1399;47.072;15.452;2023-02-25T15:36:19;12.40;28.10
2783;DHT22;1399;47.072;15.452;2023-02-25T15:51:55;12.30;28.50
2783;DHT22;1399;47.072;15.452;2023-02-25T15:57:02;12.30;28.60
2783;DHT22;1399;47.072;15.452;2023-02-25T15:59:42;12.20;28.60
2783;DHT22;1399;47.072;15.452;2023-02-25T16:07:23;12.10;28.70
2783;DHT22;1399;47.072;15.452;2023-02-25T16:09:56;12.10;28.80
2783;DHT22;1399;47.072;15.452;2023-02-25T16:12:23;12.10;28.90
2783;DHT22;1399;47.072;15.452;2023-02-25T16:14:51;12.10;28.90
2783;DHT22;1399;47.072;15.452;2023-02-25T16:17:34;12.00;28.90
2783;DHT22;1399;47.072;15.452;2023-02-25T16:20:29;12.00;29.00
2783;DHT22;1399;47.072;15.452;2023-02-25T16:22:58;12.00;28.90
2783;DHT22;1399;47.072;15.452;2023-02-25T16:25:39;12.00;28.80
2783;DHT22;1399;47.072;15.452;2023-02-25T16:30:53;11.90;28.90
2783;DHT22;1399;47.072;15.452;2023-02-25T16:33:29;11.90;28.90
2783;DHT22;1399;47.072;15.452;2023-02-25T16:41:14;11.80;29.60
2783;DHT22;1399;47.072;15.452;2023-02-25T16:43:42;11.80;30.10
2783;DHT22;1399;47.072;15.452;2023-02-25T16:46:32;11.80;30.70
2783;DHT22;1399;47.072;15.452;2023-02-25T16:49:01;11.80;31.40
2783;DHT22;1399;47.072;15.452;2023-02-25T16:51:36;11.80;31.90
2783;DHT22;1399;47.072;15.452;2023-02-25T16:56:30;11.80;32.60
2783;DHT22;1399;47.072;15.452;2023-02-25T17:01:28;11.80;32.90
2783;DHT22;1399;47.072;15.452;2023-02-25T17:04:02;11.80;33.20
2783;DHT22;1399;47.072;15.452;2023-02-25T17:06:33;11.70;33.40
2783;DHT22;1399;47.072;15.452;2023-02-25T17:08:59;11.80;33.80
2783;DHT22;1399;47.072;15.452;2023-02-25T17:11:26;11.70;34.40
2783;DHT22;1399;47.072;15.452;2023-02-25T17:13:54;11.70;34.90
2783;DHT22;1399;47.072;15.452;2023-02-25T17:16:29;11.70;35.40
2783;DHT22;1399;47.072;15.452;2023-02-25T17:19:05;11.60;35.80
2783;DHT22;1399;47.072;15.452;2023-02-25T17:21:38;11.60;36.40
2783;DHT22;1399;47.072;15.452;2023-02-25T17:24:10;11.60;36.60
2783;DHT22;1399;47.072;15.452;2023-02-25T17:26:46;11.50;36.70
2783;DHT22;1399;47.072;15.452;2023-02-25T17:29:15;11.50;37.00
2783;DHT22;1399;47.072;15.452;2023-02-25T17:36:51;11.40;37.70
2783;DHT22;1399;47.072;15.452;2023-02-25T17:39:19;11.40;38.20
2783;DHT22;1399;47.072;15.452;2023-02-25T17:41:46;11.40;38.60
2783;DHT22;1399;47.072;15.452;2023-02-25T17:47:19;11.30;39.40
2783;DHT22;1399;47.072;15.452;2023-02-25T17:49:46;11.30;39.80
2783;DHT22;1399;47.072;15.452;2023-02-25T17:55:35;11.30;40.30
2783;DHT22;1399;47.072;15.452;2023-02-25T17:57:40;11.20;40.50
2783;DHT22;1399;47.072;15.452;2023-02-25T18:00:28;11.20;40.70
2783;DHT22;1399;47.072;15.452;2023-02-25T18:03:26;11.20;41.00
2783;DHT22;1399;47.072;15.452;2023-02-25T18:05:59;11.20;41.30
2783;DHT22;1399;47.072;15.452;2023-02-25T18:08:29;11.10;41.50
2783;DHT22;1399;47.072;15.452;2023-02-25T18:11:31;11.20;41.80
2783;DHT22;1399;47.072;15.452;2023-02-25T18:13:49;11.10;41.90
2783;DHT22;1399;47.072;15.452;2023-02-25T18:16:39;11.10;42.00
2783;DHT22;1399;47.072;15.452;2023-02-25T18:19:21;11.10;42.10
2783;DHT22;1399;47.072;15.452;2023-02-25T18:21:48;11.10;42.20
2783;DHT22;1399;47.072;15.452;2023-02-25T18:24:30;11.10;42.40
2783;DHT22;1399;47.072;15.452;2023-02-25T18:27:29;11.10;42.80
2783;DHT22;1399;47.072;15.452;2023-02-25T18:30:17;11.10;43.20
2783;DHT22;1399;47.072;15.452;2023-02-25T18:32:44;11.10;43.40
2783;DHT22;1399;47.072;15.452;2023-02-25T18:35:10;11.10;43.60
2783;DHT22;1399;47.072;15.452;2023-02-25T18:37:37;11.10;43.90
2783;DHT22;1399;47.072;15.452;2023-02-25T18:40:04;11.10;43.90
2783;DHT22;1399;47.072;15.452;2023-02-25T18:42:33;11.00;44.10
2783;DHT22;1399;47.072;15.452;2023-02-25T18:44:59;11.10;44.80
2783;DHT22;1399;47.072;15.452;2023-02-25T18:47:25;11.00;44.20
2783;DHT22;1399;47.072;15.452;2023-02-25T18:49:54;11.00;44.30
2783;DHT22;1399;47.072;15.452;2023-02-25T18:52:22;11.00;44.30
2783;DHT22;1399;47.072;15.452;2023-02-25T18:54:50;11.00;44.30
2783;DHT22;1399;47.072;15.452;2023-02-25T18:57:27;11.00;44.50
2783;DHT22;1399;47.072;15.452;2023-02-25T18:59:56;11.00;44.60
2783;DHT22;1399;47.072;15.452;2023-02-25T19:02:38;11.00;44.70
2783;DHT22;1399;47.072;15.452;2023-02-25T19:05:10;11.00;44.90
2783;DHT22;1399;47.072;15.452;2023-02-25T19:07:37;11.00;45.00
2783;DHT22;1399;47.072;15.452;2023-02-25T19:10:04;11.00;45.10
2783;DHT22;1399;47.072;15.452;2023-02-25T19:12:33;11.00;45.30
2783;DHT22;1399;47.072;15.452;2023-02-25T19:15:06;11.00;45.40
2783;DHT22;1399;47.072;15.452;2023-02-25T19:17:33;11.00;45.50
2783;DHT22;1399;47.072;15.452;2023-02-25T19:19:59;11.00;45.70
2783;DHT22;1399;47.072;15.452;2023-02-25T19:22:25;11.00;45.90
2783;DHT22;1399;47.072;15.452;2023-02-25T19:24:53;11.00;46.00
2783;DHT22;1399;47.072;15.452;2023-02-25T19:27:27;11.00;46.00
2783;DHT22;1399;47.072;15.452;2023-02-25T19:29:55;11.00;46.00
2783;DHT22;1399;47.072;15.452;2023-02-25T19:32:23;11.00;46.20
2783;DHT22;1399;47.072;15.452;2023-02-25T19:34:50;11.00;46.40
2783;DHT22;1399;47.072;15.452;2023-02-25T19:37:18;11.00;46.50
2783;DHT22;1399;47.072;15.452;2023-02-25T19:39:45;11.00;46.50
2783;DHT22;1399;47.072;15.452;2023-02-25T19:42:13;10.90;46.50
2783;DHT22;1399;47.072;15.452;2023-02-25T19:44:40;10.90;46.70
2783;DHT22;1399;47.072;15.452;2023-02-25T19:47:06;11.00;47.00
2783;DHT22;1399;47.072;15.452;2023-02-25T19:49:33;10.90;46.90
2783;DHT22;1399;47.072;15.452;2023-02-25T19:51:59;10.90;47.00
2783;DHT22;1399;47.072;15.452;2023-02-25T19:54:25;10.90;47.10
2783;DHT22;1399;47.072;15.452;2023-02-25T19:56:51;10.90;47.00
2783;DHT22;1399;47.072;15.452;2023-02-25T19:59:17;10.90;47.00
2783;DHT22;1399;47.072;15.452;2023-02-25T20:01:43;10.90;47.00
2783;DHT22;1399;47.072;15.452;2023-02-25T20:04:09;10.90;46.90
2783;DHT22;1399;47.072;15.452;2023-02-25T20:06:37;10.90;46.90
2783;DHT22;1399;47.072;15.452;2023-02-25T20:09:06;10.90;46.80
2783;DHT22;1399;47.072;15.452;2023-02-25T20:11:34;10.90;46.70
2783;DHT22;1399;47.072;15.452;2023-02-25T20:14:02;10.80;46.60
2783;DHT22;1399;47.072;15.452;2023-02-25T20:16:28;10.90;46.90
2783;DHT22;1399;47.072;15.452;2023-02-25T20:18:55;10.90;46.80
2783;DHT22;1399;47.072;15.452;2023-02-25T20:21:23;10.90;46.80
2783;DHT22;1399;47.072;15.452;2023-02-25T20:23:49;10.90;46.80
2783;DHT22;1399;47.072;15.452;2023-02-25T20:26:16;10.90;46.90
2783;DHT22;1399;47.072;15.452;2023-02-25T20:28:46;10.80;46.80
2783;DHT22;1399;47.072;15.452;2023-02-25T20:31:16;10.80;46.80